Time;durP1;ratioP1;P1;durP2;ratioP2;P2;SDS_P1;SDS_P2;PMS_P1;PMS_P2;Temp;Humidity;BMP_temperature;BMP_pressure;BME280_temperature;BME280_humidity;BME280_pressure;Samples;Min_cycle;Max_cycle;Signal;HPM_P1;HPM_P2
2022/07/20 00:00:08;;;;;;;4.90;2.75;;;;;;;-148.88;32.33;74095.72;5048803;28;20029;-89
2022/07/20 00:02:33;;;;;;;5.28;2.40;;;;;;;-148.88;32.71;74116.03;5048514;28;20365;-88
2022/07/20 00:04:58;;;;;;;6.85;2.40;;;;;;;-148.88;33.00;74124.16;5049433;28;20026;-88
2022/07/20 00:07:24;;;;;;;3.63;2.55;;;;;;;-148.88;32.91;74132.28;5048268;28;20415;-89
2022/07/20 00:12:33;;;;;;;6.47;2.78;;;;;;;-148.88;33.32;74162.75;5033591;28;20036;-89
2022/07/20 00:14:58;;;;;;;7.88;2.78;;;;;;;-148.88;33.49;74174.91;5048520;28;20018;-89
2022/07/20 00:17:24;;;;;;;4.65;2.80;;;;;;;-148.88;33.72;74191.16;5031782;28;20606;-88
2022/07/20 00:19:49;;;;;;;4.47;2.72;;;;;;;-148.88;33.88;74197.25;5034052;28;20032;-88
2022/07/20 00:22:14;;;;;;;5.57;2.40;;;;;;;-148.88;33.82;74209.44;5052695;28;20064;-89
2022/07/20 00:24:39;;;;;;;5.18;2.60;;;;;;;-148.88;33.85;74217.56;5035994;28;20450;-89
2022/07/20 00:27:05;;;;;;;4.10;2.65;;;;;;;-148.88;34.04;74215.53;5035738;28;20027;-88
2022/07/20 00:29:30;;;;;;;7.32;2.92;;;;;;;-148.88;34.01;74221.63;5052413;28;20025;-89
2022/07/20 00:31:56;;;;;;;4.68;2.65;;;;;;;-148.88;34.07;74217.56;5052271;28;20029;-88
2022/07/20 00:34:21;;;;;;;5.38;2.83;;;;;;;-148.88;34.49;74227.72;5052323;28;20514;-88
2022/07/20 00:36:46;;;;;;;6.43;2.83;;;;;;;-148.88;34.54;74233.81;5035466;28;20605;-89
2022/07/20 00:39:11;;;;;;;7.18;2.90;;;;;;;-148.88;34.63;74233.81;5035508;28;20036;-88
2022/07/20 00:41:37;;;;;;;6.10;3.10;;;;;;;-148.88;34.74;74235.84;5052302;28;20589;-88
2022/07/20 00:44:05;;;;;;;5.75;3.05;;;;;;;-148.88;34.81;74243.97;5035512;28;20368;-90
2022/07/20 00:46:33;;;;;;;4.35;2.63;;;;;;;-148.88;34.76;74246.00;5052207;28;20033;-89
2022/07/20 00:48:58;;;;;;;6.00;2.63;;;;;;;-148.88;34.87;74252.06;5052083;28;20388;-89
2022/07/20 00:51:24;;;;;;;4.93;2.80;;;;;;;-148.88;35.04;74254.09;5052107;28;20499;-89
2022/07/20 00:53:51;;;;;;;8.88;2.95;;;;;;;-148.88;35.18;74258.16;5052038;28;20052;-89
2022/07/20 00:56:17;;;;;;;5.80;2.78;;;;;;;-148.88;35.32;74260.19;5051849;28;20108;-89
2022/07/20 00:58:43;;;;;;;7.47;3.38;;;;;;;-148.88;35.54;74272.38;5051775;28;20029;-88
2022/07/20 01:01:08;;;;;;;6.57;2.85;;;;;;;-148.88;35.55;74280.50;5035551;28;20036;-88
2022/07/20 01:03:33;;;;;;;4.88;2.90;;;;;;;-148.88;35.62;74278.47;5035122;28;20092;-89
2022/07/20 01:05:59;;;;;;;4.88;2.53;;;;;;;-148.88;35.56;74278.47;5051719;28;20136;-88
2022/07/20 01:08:25;;;;;;;4.93;3.78;;;;;;;-148.88;35.60;74282.53;5034979;28;20023;-88
2022/07/20 01:10:50;;;;;;;5.47;2.90;;;;;;;-148.88;35.64;74282.53;5035034;28;20026;-89
2022/07/20 01:13:15;;;;;;;6.00;2.85;;;;;;;-148.88;35.46;74278.47;5051577;28;20399;-89
2022/07/20 01:15:41;;;;;;;4.50;2.50;;;;;;;-148.88;35.47;74282.53;5034959;28;20399;-89
2022/07/20 01:18:06;;;;;;;7.03;2.88;;;;;;;-148.88;35.41;74282.53;5034992;28;20021;-88
2022/07/20 01:20:32;;;;;;;6.32;2.67;;;;;;;-148.88;35.48;74284.56;5051507;28;20116;-89
2022/07/20 01:22:58;;;;;;;4.15;2.83;;;;;;;-148.88;35.56;74286.59;5051400;28;20025;-89
2022/07/20 01:25:23;;;;;;;4.85;2.58;;;;;;;-148.88;35.61;74290.66;5034708;28;20400;-87
2022/07/20 01:27:49;;;;;;;6.00;3.00;;;;;;;-148.88;35.78;74288.63;5051515;28;20044;-89
2022/07/20 01:30:14;;;;;;;5.30;2.72;;;;;;;-148.88;35.44;74290.66;5051761;28;20067;-88
2022/07/20 01:32:39;;;;;;;9.65;3.17;;;;;;;-148.88;35.67;74292.69;5034210;28;20022;-88
2022/07/20 01:35:05;;;;;;;9.68;3.20;;;;;;;-148.88;35.73;74294.72;5034487;28;20448;-86
2022/07/20 01:37:30;;;;;;;4.65;2.78;;;;;;;-148.88;35.78;74300.81;5050861;28;20033;-89
2022/07/20 01:39:56;;;;;;;9.00;3.25;;;;;;;-148.88;35.83;74302.84;5034464;28;20032;-88
2022/07/20 01:42:22;;;;;;;5.82;2.85;;;;;;;-148.88;36.06;74310.97;5051190;28;20112;-89
2022/07/20 01:44:47;;;;;;;8.38;3.33;;;;;;;-148.88;36.08;74313.00;5050896;28;20029;-89
2022/07/20 01:47:12;;;;;;;4.68;2.72;;;;;;;-148.88;36.36;74321.13;5051044;28;20108;-89
2022/07/20 01:49:38;;;;;;;4.63;2.90;;;;;;;-148.88;36.54;74323.16;5034327;28;20504;-88
2022/07/20 01:52:04;;;;;;;8.02;2.80;;;;;;;-148.88;36.67;74333.28;5034295;28;20391;-86
2022/07/20 01:54:29;;;;;;;5.93;3.05;;;;;;;-148.88;37.01;74335.31;5050942;28;20021;-89
2022/07/20 01:56:54;;;;;;;6.07;2.90;;;;;;;-148.88;36.95;74341.41;5035079;28;20025;-89
2022/07/20 01:59:20;;;;;;;6.43;2.63;;;;;;;-148.88;37.08;74339.38;5035394;28;20022;-89
2022/07/20 02:01:45;;;;;;;6.30;2.80;;;;;;;-148.88;37.26;74341.41;5050742;28;20025;-88
2022/07/20 02:04:10;;;;;;;7.22;3.20;;;;;;;-148.88;37.46;74355.63;5034020;28;20021;-88
2022/07/20 02:06:36;;;;;;;5.55;2.90;;;;;;;-148.88;37.77;74361.72;5034215;28;20053;-88
2022/07/20 02:09:02;;;;;;;6.47;3.05;;;;;;;-148.88;37.73;74371.88;5033996;28;20104;-89
2022/07/20 02:11:28;;;;;;;4.68;3.10;;;;;;;-148.88;38.08;74384.06;5050353;28;20368;-89
2022/07/20 02:13:53;;;;;;;5.82;3.05;;;;;;;-148.88;38.20;74384.06;5033874;28;20028;-89
2022/07/20 02:16:19;;;;;;;5.15;2.85;;;;;;;-148.88;38.07;74388.13;5034014;28;20032;-88
2022/07/20 02:18:49;;;;;;;5.97;2.80;;;;;;;-148.88;38.14;74394.22;5050653;28;20021;-89
2022/07/20 02:21:16;;;;;;;6.90;2.72;;;;;;;-148.88;38.06;74394.22;5034337;28;20083;-89
2022/07/20 02:23:43;;;;;;;5.35;3.00;;;;;;;-148.88;38.25;74398.28;5050420;28;20032;-89
2022/07/20 02:26:08;;;;;;;4.82;2.78;;;;;;;-148.88;38.24;74406.41;5050282;28;20021;-89
2022/07/20 02:28:34;;;;;;;6.90;3.13;;;;;;;-148.88;38.37;74404.38;5050077;28;20017;-89
2022/07/20 02:31:00;;;;;;;6.45;3.00;;;;;;;-148.88;38.25;74408.44;5033568;28;20394;-88
2022/07/20 02:33:25;;;;;;;4.40;3.00;;;;;;;-148.88;38.19;74404.38;5033482;28;20107;-88
2022/07/20 02:35:50;;;;;;;7.20;2.80;;;;;;;-148.88;38.27;74410.47;5033417;28;20017;-88
2022/07/20 02:38:16;;;;;;;4.07;2.80;;;;;;;-148.88;38.61;74418.56;5033204;28;20391;-89
2022/07/20 02:40:41;;;;;;;3.95;2.90;;;;;;;-148.88;38.60;74420.59;5033354;28;20021;-89
2022/07/20 02:43:07;;;;;;;5.75;3.22;;;;;;;-148.88;38.76;74434.81;5033513;28;20026;-88
2022/07/20 02:45:32;;;;;;;5.18;3.10;;;;;;;-148.88;38.95;74434.81;5049968;28;20037;-90
2022/07/20 02:48:02;;;;;;;4.65;2.70;;;;;;;-148.88;38.85;74440.91;5051056;22;20145;-84
2022/07/20 02:50:30;;;;;;;7.40;2.97;;;;;;;-148.88;39.07;74449.03;4974859;28;20029;-84
2022/07/20 02:52:55;;;;;;;5.95;3.10;;;;;;;-148.88;39.24;74457.16;4974403;28;20030;-84
2022/07/20 02:55:20;;;;;;;4.15;2.88;;;;;;;-148.88;39.16;74469.34;4975222;28;20557;-84
2022/07/20 02:57:46;;;;;;;5.28;2.88;;;;;;;-148.88;39.30;74475.44;4975008;28;20042;-84
2022/07/20 03:00:12;;;;;;;3.95;2.85;;;;;;;-148.88;39.17;74469.34;4975005;28;20393;-84
2022/07/20 03:02:37;;;;;;;6.20;2.80;;;;;;;-148.88;39.46;74477.47;4974748;28;20030;-84
2022/07/20 03:05:03;;;;;;;6.93;3.00;;;;;;;-148.88;39.37;74475.44;4974706;28;20034;-84
2022/07/20 03:07:28;;;;;;;8.23;2.92;;;;;;;-148.88;39.38;74483.56;4974527;28;20080;-84
2022/07/20 03:09:54;;;;;;;5.65;2.85;;;;;;;-148.88;39.38;74479.50;4974789;28;20166;-83
2022/07/20 03:12:19;;;;;;;5.97;2.97;;;;;;;-148.88;39.34;74481.53;4974798;28;20050;-83
2022/07/20 03:14:44;;;;;;;6.60;2.65;;;;;;;-148.88;39.22;74485.59;4974510;28;20373;-83
2022/07/20 03:17:10;;;;;;;4.75;2.72;;;;;;;-148.88;39.53;74489.66;4974419;28;20031;-84
2022/07/20 03:19:35;;;;;;;8.35;3.10;;;;;;;-148.88;39.31;74493.72;4974442;28;20034;-84
2022/07/20 03:22:00;;;;;;;6.80;2.90;;;;;;;-148.88;39.07;74489.66;4974113;28;20092;-84
2022/07/20 03:24:25;;;;;;;6.60;2.85;;;;;;;-148.88;38.82;74489.66;4974236;28;20342;-84
2022/07/20 03:26:51;;;;;;;3.53;2.67;;;;;;;-148.88;38.76;74485.59;4974442;28;20087;-84
2022/07/20 03:29:16;;;;;;;4.60;2.88;;;;;;;-148.88;38.96;74489.66;4974109;28;20424;-84
2022/07/20 03:31:47;;;;;;;4.18;2.80;;;;;;;-148.88;39.04;74499.81;4972920;28;20022;-84
2022/07/20 03:34:12;;;;;;;4.35;3.35;;;;;;;-148.88;39.28;74505.88;4974720;28;20030;-84
2022/07/20 03:36:37;;;;;;;5.75;2.75;;;;;;;-148.88;39.30;74505.88;4973287;28;20030;-83
2022/07/20 03:39:05;;;;;;;5.20;2.95;;;;;;;-148.88;39.39;74509.94;4974536;28;20037;-84
2022/07/20 03:41:30;;;;;;;5.65;3.13;;;;;;;-148.88;39.43;74509.94;4974242;28;20023;-84
2022/07/20 03:43:56;;;;;;;5.85;2.90;;;;;;;-148.88;39.61;74518.06;4974399;28;20034;-83
2022/07/20 03:46:21;;;;;;;6.20;2.80;;;;;;;-148.88;39.68;74520.09;4974250;28;20037;-84
2022/07/20 03:48:46;;;;;;;7.72;2.88;;;;;;;-148.88;39.56;74524.16;4974013;28;20046;-84
2022/07/20 03:51:11;;;;;;;5.45;2.95;;;;;;;-148.88;39.44;74526.19;4974443;28;20105;-83
2022/07/20 03:53:37;;;;;;;3.72;2.60;;;;;;;-148.88;39.41;74526.19;4973990;28;20054;-84
2022/07/20 03:56:02;;;;;;;5.72;2.80;;;;;;;-148.88;39.46;74524.16;4974668;28;20109;-84
2022/07/20 03:58:28;;;;;;;4.72;2.90;;;;;;;-148.88;39.13;74518.06;4973294;28;20073;-84
2022/07/20 04:00:53;;;;;;;4.15;2.70;;;;;;;-148.88;39.22;74511.97;4973206;28;20150;-84
2022/07/20 04:03:18;;;;;;;7.78;2.80;;;;;;;-148.88;39.35;74511.97;4974533;28;20030;-84
2022/07/20 04:05:43;;;;;;;6.32;2.97;;;;;;;-148.88;39.28;74509.94;4974692;28;20030;-84
2022/07/20 04:08:09;;;;;;;4.78;2.67;;;;;;;-148.88;39.51;74518.06;4973048;28;20021;-84
2022/07/20 04:10:35;;;;;;;6.35;3.10;;;;;;;-148.88;39.59;74522.13;4973710;28;20054;-84
2022/07/20 04:13:03;;;;;;;5.20;2.50;;;;;;;-148.88;39.46;74526.19;4974835;28;20027;-85
2022/07/20 04:15:28;;;;;;;4.97;2.95;;;;;;;-148.88;39.67;74532.28;4974702;28;20037;-84
2022/07/20 04:17:54;;;;;;;6.53;2.88;;;;;;;-148.88;39.75;74534.31;4973997;28;20023;-83
2022/07/20 04:20:19;;;;;;;5.25;3.05;;;;;;;-148.88;40.11;74534.31;4973841;28;20037;-84
2022/07/20 04:22:44;;;;;;;6.20;2.88;;;;;;;-148.88;40.38;74534.31;4973697;28;20109;-84
2022/07/20 04:25:10;;;;;;;7.38;3.03;;;;;;;-148.88;40.31;74538.38;4973678;28;20026;-84
2022/07/20 04:27:35;;;;;;;8.80;2.97;;;;;;;-148.88;40.43;74528.22;4973654;28;20089;-84
2022/07/20 04:30:00;;;;;;;4.05;2.60;;;;;;;-148.88;40.64;74530.25;4973541;28;20034;-84
2022/07/20 04:32:26;;;;;;;9.30;2.78;;;;;;;-148.88;40.55;74522.13;4973672;28;20035;-84
2022/07/20 04:34:51;;;;;;;5.78;3.03;;;;;;;-148.88;40.42;74526.19;4974413;28;20022;-84
2022/07/20 04:37:16;;;;;;;6.25;3.25;;;;;;;-148.88;40.74;74518.06;4973486;28;20497;-84
2022/07/20 04:39:42;;;;;;;10.32;3.15;;;;;;;-148.88;40.89;74522.13;4973652;28;20022;-84
2022/07/20 04:42:07;;;;;;;8.68;3.30;;;;;;;-148.88;40.82;74518.06;4973675;28;20062;-84
2022/07/20 04:44:32;;;;;;;7.28;2.88;;;;;;;-148.88;41.09;74522.13;4973672;28;20082;-83
2022/07/20 04:46:58;;;;;;;4.45;2.90;;;;;;;-148.88;41.37;74524.16;4973894;28;20022;-85
2022/07/20 04:49:23;;;;;;;5.50;2.72;;;;;;;-148.88;41.69;74522.13;4974128;28;20521;-84
2022/07/20 04:51:48;;;;;;;4.72;2.85;;;;;;;-148.88;41.78;74522.13;4973868;28;20134;-84
2022/07/20 04:54:14;;;;;;;6.07;2.90;;;;;;;-148.88;41.84;74526.19;4973436;28;20022;-84
2022/07/20 04:56:39;;;;;;;5.30;2.58;;;;;;;-148.88;41.97;74526.19;4973843;28;20385;-84
2022/07/20 04:59:05;;;;;;;3.55;2.47;;;;;;;-148.88;42.62;74526.19;4973566;28;20139;-84
2022/07/20 05:01:31;;;;;;;7.60;3.00;;;;;;;-148.88;42.95;74526.19;4973484;28;20023;-84
2022/07/20 05:03:56;;;;;;;7.88;2.88;;;;;;;-148.88;42.62;74522.13;4972565;28;20133;-84
2022/07/20 05:06:22;;;;;;;5.95;2.90;;;;;;;-148.88;42.42;74509.94;4973152;28;20400;-84
2022/07/20 05:08:47;;;;;;;5.20;2.83;;;;;;;-148.88;42.33;74505.88;4977182;28;20041;-84
2022/07/20 05:11:13;;;;;;;5.80;3.05;;;;;;;-148.88;42.35;74493.72;4976912;28;20098;-84
2022/07/20 05:13:38;;;;;;;6.85;3.15;;;;;;;-148.88;42.58;74489.66;4977170;28;20098;-84
2022/07/20 05:16:05;;;;;;;6.72;2.95;;;;;;;-148.88;42.75;74477.47;4976813;28;20034;-84
2022/07/20 05:18:30;;;;;;;6.82;3.22;;;;;;;-148.88;42.29;74473.41;4976530;28;20537;-84
2022/07/20 05:20:57;;;;;;;5.55;2.70;;;;;;;-148.88;42.64;74461.22;4976642;28;20109;-84
2022/07/20 05:23:22;;;;;;;4.65;2.92;;;;;;;-148.88;42.97;74457.16;4976710;28;20022;-84
2022/07/20 05:25:49;;;;;;;5.82;2.80;;;;;;;-148.88;42.97;74453.09;4976381;28;20474;-84
2022/07/20 05:28:21;;;;;;;4.78;2.70;;;;;;;-148.88;42.67;74440.91;4975137;28;20038;-85
2022/07/20 05:30:47;;;;;;;7.20;2.78;;;;;;;-148.88;42.39;74432.78;4976977;28;20027;-84
2022/07/20 05:33:12;;;;;;;8.02;2.90;;;;;;;-148.88;42.91;74408.44;4977391;28;20401;-83
2022/07/20 05:35:37;;;;;;;7.70;2.85;;;;;;;-148.88;43.25;74404.38;4976660;28;20031;-83
2022/07/20 05:38:03;;;;;;;8.40;3.25;;;;;;;-148.88;43.69;74392.19;4976357;28;20029;-83
2022/07/20 05:40:28;;;;;;;5.35;3.00;;;;;;;-148.88;43.56;74388.13;4976168;28;20054;-83
2022/07/20 05:42:54;;;;;;;5.35;2.97;;;;;;;-148.88;44.03;74380.00;4976245;28;20105;-83
2022/07/20 05:45:19;;;;;;;11.00;3.15;;;;;;;-148.88;44.38;74384.06;4976222;28;20110;-83
2022/07/20 05:47:44;;;;;;;6.75;3.10;;;;;;;-148.88;44.06;74375.94;4975783;28;20077;-83
2022/07/20 05:50:10;;;;;;;6.70;2.80;;;;;;;-148.88;43.12;74359.69;4976181;28;20086;-83
2022/07/20 05:52:35;;;;;;;4.78;2.83;;;;;;;-148.88;43.10;74349.53;4976463;28;20031;-84
2022/07/20 05:55:00;;;;;;;5.28;2.90;;;;;;;-148.88;43.00;74339.38;4976125;28;20026;-84
2022/07/20 05:57:26;;;;;;;6.60;3.00;;;;;;;-148.88;42.87;74333.28;4976148;28;20058;-83
2022/07/20 05:59:51;;;;;;;6.35;2.60;;;;;;;-148.88;42.70;74319.09;4975915;28;20054;-84
2022/07/20 06:02:17;;;;;;;10.43;3.15;;;;;;;-148.88;43.44;74315.03;4976157;28;20033;-84
2022/07/20 06:04:42;;;;;;;7.38;3.10;;;;;;;-148.88;42.94;74306.91;4975812;28;20038;-83
2022/07/20 06:07:07;;;;;;;5.13;2.90;;;;;;;-148.88;40.64;74274.41;4975922;28;20043;-83
2022/07/20 06:09:33;;;;;;;6.43;3.03;;;;;;;-148.88;40.41;74254.09;4975406;28;20029;-84
2022/07/20 06:11:58;;;;;;;10.88;3.38;;;;;;;-148.88;40.18;74246.00;4976681;28;20031;-84
2022/07/20 06:14:23;;;;;;;7.07;2.97;;;;;;;-148.88;40.42;74233.81;4976030;28;20031;-83
2022/07/20 06:16:48;;;;;;;7.18;3.60;;;;;;;-148.88;39.68;74213.50;4975897;28;20031;-84
2022/07/20 06:19:14;;;;;;;5.45;2.83;;;;;;;-148.88;39.94;74193.19;4975136;28;20469;-83
2022/07/20 06:21:39;;;;;;;7.97;3.05;;;;;;;-148.88;39.20;74181.00;4975053;28;20034;-84
2022/07/20 06:24:05;;;;;;;8.07;3.00;;;;;;;-148.88;38.52;74160.72;4976308;28;20106;-83
2022/07/20 06:26:30;;;;;;;5.40;2.90;;;;;;;-148.88;37.86;74136.34;4975905;28;20038;-83
2022/07/20 06:28:56;;;;;;;9.27;3.10;;;;;;;-148.88;37.19;74120.09;4975745;28;20069;-83
2022/07/20 06:31:27;;;;;;;5.75;2.97;;;;;;;-148.88;38.07;74105.88;4975854;28;20022;-83
2022/07/20 06:33:52;;;;;;;9.90;3.30;;;;;;;-148.88;37.82;74095.72;4974833;28;20027;-83
2022/07/20 06:36:18;;;;;;;7.38;2.97;;;;;;;-148.88;37.90;74085.59;4975928;28;20030;-83
2022/07/20 06:38:44;;;;;;;7.05;3.55;;;;;;;-148.88;37.42;74071.38;4975543;28;20089;-83
2022/07/20 06:41:09;;;;;;;4.07;2.72;;;;;;;-148.88;37.81;74063.25;4975606;28;20105;-83
2022/07/20 06:43:34;;;;;;;9.43;3.03;;;;;;;-148.88;36.80;74036.84;4975849;28;20031;-84
2022/07/20 06:46:00;;;;;;;5.95;3.13;;;;;;;-148.88;36.61;74022.66;4975553;28;20065;-83
2022/07/20 06:48:25;;;;;;;6.00;2.97;;;;;;;-148.88;36.44;74004.38;4975746;28;20027;-84
2022/07/20 06:50:50;;;;;;;9.15;3.45;;;;;;;-148.88;36.14;73992.19;4975913;28;20081;-84
2022/07/20 06:53:16;;;;;;;8.00;3.10;;;;;;;-148.88;36.08;73975.94;4975307;28;20027;-84
2022/07/20 06:55:41;;;;;;;8.00;3.50;;;;;;;-148.88;35.93;73961.72;4975333;28;20030;-83
2022/07/20 06:58:06;;;;;;;7.30;3.05;;;;;;;-148.88;35.52;73947.53;4975187;28;20452;-84
2022/07/20 07:00:32;;;;;;;5.13;2.83;;;;;;;-148.88;35.44;73935.34;4975906;28;20030;-84
2022/07/20 07:02:57;;;;;;;5.40;3.10;;;;;;;-148.88;36.16;73935.34;4975876;28;20073;-84
2022/07/20 07:05:22;;;;;;;8.50;3.13;;;;;;;-148.88;35.29;73931.28;4974463;28;20031;-83
2022/07/20 07:07:48;;;;;;;7.20;3.30;;;;;;;-148.88;36.13;73921.13;4974318;28;20031;-84
2022/07/20 07:10:13;;;;;;;6.05;3.33;;;;;;;-148.88;36.03;73908.94;4975686;28;20026;-84
2022/07/20 07:12:38;;;;;;;7.78;3.15;;;;;;;-148.88;35.63;73892.72;4975718;28;20050;-83
2022/07/20 07:15:07;;;;;;;7.90;3.25;;;;;;;-148.88;35.03;73882.56;4975318;28;20027;-83
2022/07/20 07:17:32;;;;;;;7.00;3.30;;;;;;;-148.88;35.18;73894.75;4973908;28;20026;-84
2022/07/20 07:19:58;;;;;;;4.88;3.13;;;;;;;-148.88;33.42;73846.00;4974970;28;20034;-84
2022/07/20 07:22:26;;;;;;;4.55;2.92;;;;;;;-148.88;33.70;73866.31;4973954;28;20023;-84
2022/07/20 07:24:54;;;;;;;6.50;2.78;;;;;;;-148.88;34.81;73848.03;4973605;28;20022;-84
2022/07/20 07:27:20;;;;;;;15.32;3.90;;;;;;;-148.88;34.38;73829.78;4975060;28;20073;-84
2022/07/20 07:29:45;;;;;;;7.20;3.25;;;;;;;-148.88;35.33;73831.81;4974875;28;20481;-85
2022/07/20 07:32:11;;;;;;;7.47;3.28;;;;;;;-148.88;34.71;73811.50;4973882;28;20073;-84
2022/07/20 07:34:36;;;;;;;4.97;2.90;;;;;;;-148.88;34.80;73791.19;4974779;28;20031;-84
2022/07/20 07:37:02;;;;;;;6.00;3.13;;;;;;;-148.88;35.23;73791.19;4974490;28;20062;-85
2022/07/20 07:39:27;;;;;;;6.05;3.53;;;;;;;-148.88;34.92;73781.03;4974688;28;20114;-84
2022/07/20 07:41:52;;;;;;;8.52;3.38;;;;;;;-148.88;34.60;73770.91;4974621;28;20034;-84
2022/07/20 07:44:18;;;;;;;6.22;2.80;;;;;;;-148.88;34.50;73754.66;4974650;28;20027;-84
2022/07/20 07:46:43;;;;;;;3.83;2.78;;;;;;;-148.88;35.72;73750.59;4974486;28;20038;-84
2022/07/20 07:49:15;;;;;;;6.18;2.90;;;;;;;-148.88;35.90;73744.50;4974500;28;20047;-84
2022/07/20 07:51:41;;;;;;;10.00;3.15;;;;;;;-148.88;34.55;73722.16;4974560;28;20033;-83
2022/07/20 07:54:06;;;;;;;3.97;2.75;;;;;;;-148.88;33.44;73689.69;4974571;28;20023;-84
2022/07/20 07:56:32;;;;;;;6.28;3.00;;;;;;;-148.88;34.86;73683.59;4974474;28;20081;-84
2022/07/20 07:58:57;;;;;;;6.93;3.08;;;;;;;-148.88;33.80;73653.16;4974492;28;20054;-84
2022/07/20 08:01:23;;;;;;;7.28;3.10;;;;;;;-148.88;32.55;73620.66;4974932;28;20037;-84
2022/07/20 08:03:48;;;;;;;4.82;2.72;;;;;;;-148.88;33.12;73606.44;4975575;28;20058;-84
2022/07/20 08:06:14;;;;;;;4.90;3.05;;;;;;;-148.88;32.24;73592.25;4973889;28;20026;-83
2022/07/20 08:08:39;;;;;;;7.70;3.60;;;;;;;-148.88;32.01;73567.88;4975019;28;20066;-84
2022/07/20 08:11:05;;;;;;;6.22;3.13;;;;;;;-148.88;32.32;73553.66;4975532;28;20026;-83
2022/07/20 08:13:30;;;;;;;6.05;3.35;;;;;;;-148.88;31.83;73531.34;4974301;28;20031;-84
2022/07/20 08:15:55;;;;;;;5.65;3.08;;;;;;;-148.88;31.06;73515.09;4974253;28;20516;-84
2022/07/20 08:18:23;;;;;;;6.65;3.08;;;;;;;-148.88;31.02;73498.84;4973033;28;20023;-84
2022/07/20 08:20:49;;;;;;;8.38;3.10;;;;;;;-148.88;31.19;73478.56;4973071;28;20058;-84
2022/07/20 08:23:15;;;;;;;7.43;3.45;;;;;;;-148.88;30.23;73462.31;4974726;28;20113;-84
2022/07/20 08:25:40;;;;;;;7.38;3.10;;;;;;;-148.88;31.29;73454.19;4975015;28;20034;-84
2022/07/20 08:28:10;;;;;;;8.35;3.20;;;;;;;-148.88;28.89;73437.94;4974716;28;20046;-84
2022/07/20 08:30:36;;;;;;;6.05;3.35;;;;;;;-148.88;28.12;73409.53;4975232;28;20026;-84
2022/07/20 08:33:02;;;;;;;6.60;3.00;;;;;;;-148.88;27.56;73397.34;4975118;28;20494;-85
2022/07/20 08:35:27;;;;;;;6.97;3.45;;;;;;;-148.88;27.56;73385.19;4974965;28;20058;-84
2022/07/20 08:37:52;;;;;;;3.60;2.58;;;;;;;-148.88;26.88;73366.91;4975004;28;20031;-84
2022/07/20 08:40:18;;;;;;;8.07;3.08;;;;;;;-148.88;27.06;73352.69;4976003;28;20042;-83
2022/07/20 08:42:43;;;;;;;7.13;3.33;;;;;;;-148.88;27.36;73352.69;4979531;28;20101;-84
2022/07/20 08:45:09;;;;;;;7.95;3.08;;;;;;;-148.88;27.09;73350.66;4979741;28;20097;-84
2022/07/20 08:47:39;;;;;;;6.63;3.05;;;;;;;-148.88;27.29;73338.47;5004941;23;20027;-87
2022/07/20 08:50:05;;;;;;;7.68;3.30;;;;;;;-148.88;27.40;73312.09;4998017;28;20030;-88
2022/07/20 08:52:31;;;;;;;6.93;3.17;;;;;;;-148.88;27.49;73310.06;4996608;28;20064;-87
2022/07/20 08:54:56;;;;;;;7.05;3.30;;;;;;;-148.88;27.56;73287.72;5012500;28;20026;-88
2022/07/20 08:57:21;;;;;;;7.00;3.55;;;;;;;-148.88;27.12;73275.56;4997315;28;20565;-88
2022/07/20 08:59:48;;;;;;;6.45;3.20;;;;;;;-148.88;27.16;73259.31;4997278;28;20081;-89
2022/07/20 09:02:15;;;;;;;5.40;3.20;;;;;;;-148.88;26.63;73243.06;4997285;28;20106;-88
2022/07/20 09:04:58;;;;;;;6.80;3.47;;;;;;;-148.88;26.52;73237.00;4996074;28;20023;-84
2022/07/20 09:07:43;;;;;;;6.30;3.42;;;;;;;-148.88;25.74;73224.81;4997136;28;20073;-85
2022/07/20 09:10:15;;;;;;;5.65;3.35;;;;;;;-148.88;26.10;73243.06;4995842;28;20030;-89
2022/07/20 09:13:13;;;;;;;7.75;3.70;;;;;;;-148.88;25.84;73202.47;4997076;28;20034;-89
2022/07/20 09:15:50;;;;;;;8.23;3.30;;;;;;;-148.88;26.04;73210.59;4997154;28;20034;-85
2022/07/20 09:18:23;;;;;;;5.25;3.33;;;;;;;-148.88;26.78;73210.59;4995569;28;20488;-86
2022/07/20 09:20:52;;;;;;;7.95;4.07;;;;;;;-148.88;26.22;73194.34;4996897;28;20026;-88
2022/07/20 09:23:26;;;;;;;7.75;3.80;;;;;;;-148.88;26.10;73163.91;4995679;28;20060;-86
2022/07/20 09:26:05;;;;;;;9.88;3.70;;;;;;;-148.88;26.12;73155.78;4997173;28;20481;-85
2022/07/20 09:28:40;;;;;;;7.45;4.07;;;;;;;-148.88;25.66;73153.75;4995739;28;20057;-89
2022/07/20 09:31:22;;;;;;;10.00;4.35;;;;;;;-148.88;25.87;73161.88;4995679;28;20481;-87
2022/07/20 09:33:57;;;;;;;6.35;3.85;;;;;;;-148.88;25.56;73105.03;4995528;28;20105;-89
2022/07/20 09:36:24;;;;;;;10.98;4.10;;;;;;;-148.88;25.51;73105.03;4995388;28;20030;-87
2022/07/20 09:38:50;;;;;;;9.73;4.40;;;;;;;-148.88;27.33;73084.75;4995200;28;20046;-88
2022/07/20 09:41:24;;;;;;;6.88;4.20;;;;;;;-148.88;24.83;73066.47;4995424;28;20389;-88
2022/07/20 09:43:50;;;;;;;8.25;4.40;;;;;;;-148.88;26.13;73066.47;4996215;28;20480;-88
2022/07/20 09:46:27;;;;;;;7.68;4.00;;;;;;;-148.88;25.17;73040.09;4995282;28;20062;-88
2022/07/20 09:48:55;;;;;;;11.35;4.53;;;;;;;-148.88;24.16;73019.78;4994841;28;20081;-89
2022/07/20 09:51:27;;;;;;;9.00;4.82;;;;;;;-148.88;24.70;73027.91;4994616;28;20504;-88
2022/07/20 09:53:55;;;;;;;5.38;4.43;;;;;;;-148.88;24.88;73021.81;4994865;28;20038;-88
2022/07/20 09:56:25;;;;;;;9.65;4.38;;;;;;;-148.88;24.30;73027.91;4995111;28;20058;-88
2022/07/20 09:58:53;;;;;;;7.80;4.53;;;;;;;-148.88;24.49;73042.13;4995286;28;20033;-88
2022/07/20 10:01:21;;;;;;;7.40;4.40;;;;;;;-148.88;24.27;73007.63;4995708;28;20026;-88
2022/07/20 10:03:52;;;;;;;8.05;4.60;;;;;;;-148.88;24.75;73031.97;4995342;28;20027;-89
2022/07/20 10:06:19;;;;;;;10.00;4.55;;;;;;;-148.88;24.59;73021.81;4995051;28;20027;-87
2022/07/20 10:08:45;;;;;;;9.02;4.45;;;;;;;-148.88;24.45;73007.63;4994657;28;20396;-88
2022/07/20 10:11:12;;;;;;;8.05;4.22;;;;;;;-148.88;25.27;72995.44;4994652;28;20532;-88
2022/07/20 10:13:39;;;;;;;13.15;4.57;;;;;;;-148.88;25.58;73023.84;4994736;28;20023;-87
2022/07/20 10:16:41;;;;;;;9.10;4.00;;;;;;;-148.88;25.63;73070.53;4996618;28;20057;-87
2022/07/20 10:19:08;;;;;;;7.37;4.77;;;;;;;-148.88;25.86;73105.03;4995000;28;20034;-88
2022/07/20 10:21:43;;;;;;;9.70;4.38;;;;;;;-148.88;26.33;73100.97;4994927;28;20389;-88
2022/07/20 10:24:12;;;;;;;8.88;5.10;;;;;;;-148.88;26.14;73125.34;4994585;28;20022;-90
2022/07/20 10:26:37;;;;;;;9.88;5.00;;;;;;;-148.88;26.45;73107.06;4994502;28;20038;-88
2022/07/20 10:29:02;;;;;;;12.75;5.20;;;;;;;-148.88;26.16;73084.75;4994510;28;20061;-88
2022/07/20 10:31:48;;;;;;;11.52;5.22;;;;;;;-148.88;26.01;73084.75;4995535;28;20037;-88
2022/07/20 10:34:35;;;;;;;8.82;4.80;;;;;;;-148.88;25.91;73076.63;4995589;28;20512;-88
2022/07/20 10:37:25;;;;;;;9.45;4.88;;;;;;;-148.88;25.27;73064.44;4995468;28;20043;-89
2022/07/20 10:40:12;;;;;;;11.93;5.13;;;;;;;-148.88;25.77;73062.41;4994197;28;20026;-88
2022/07/20 10:42:48;;;;;;;9.82;5.38;;;;;;;-148.88;25.55;73080.69;4993816;28;20547;-86
2022/07/20 10:45:13;;;;;;;11.93;6.00;;;;;;;-148.88;25.20;73080.69;4994696;28;20034;-89
2022/07/20 10:47:43;;;;;;;11.90;7.20;;;;;;;-148.88;25.61;73064.44;4993912;28;20022;-88
2022/07/20 10:50:16;;;;;;;14.95;7.75;;;;;;;-148.88;26.05;73064.44;4995009;28;20030;-88
2022/07/20 10:52:41;;;;;;;14.73;9.00;;;;;;;-148.88;26.27;73094.91;4995518;28;20504;-89
2022/07/20 10:55:35;;;;;;;17.52;11.80;;;;;;;-148.88;25.56;73064.44;4994004;28;20038;-87
2022/07/20 10:58:11;;;;;;;19.50;15.30;;;;;;;-148.88;26.23;73078.66;4994163;28;20077;-88
2022/07/20 11:00:39;;;;;;;17.30;15.07;;;;;;;-148.88;26.26;73088.81;4995317;28;20060;-88
2022/07/20 11:03:13;;;;;;;23.42;15.55;;;;;;;-148.88;25.78;73056.31;4993887;28;20022;-87
2022/07/20 11:05:39;;;;;;;19.10;14.43;;;;;;;-148.88;25.87;73027.91;5000320;28;20037;-88
2022/07/20 11:08:09;;;;;;;14.27;10.55;;;;;;;-148.88;26.60;73031.97;5018005;28;20041;-89
2022/07/20 11:10:35;;;;;;;13.48;8.25;;;;;;;-148.88;26.57;72979.19;5018834;28;20011;-90
2022/07/20 11:13:05;;;;;;;14.65;8.70;;;;;;;-148.88;26.15;72983.25;5019352;28;20010;-89
2022/07/20 11:15:43;;;;;;;14.95;8.77;;;;;;;-148.88;26.50;72983.25;4998974;28;20033;-88
2022/07/20 11:18:11;;;;;;;11.40;8.25;;;;;;;-148.88;26.57;72993.41;4994644;28;20084;-88